Bluewell, West Virginia
Current Conditions -  °F | °C
As of 11:52 AM on Thursday 18 Dec 2014 (Local Time) from KBLF Reporting Station
Clear Clear  
Wind Chill: -1°   Ceiling: Unl
Heat Index:   Visibility: 10mi
Dew Point: -6°   Wind: 5mph
Humidity: 61%   Direction: 300°WNW
Pressure: 30.11"   Gusts: NA
Location:  37.2994°N, 81.226°W
Report Text: KBLF 181652Z AUTO 30004KT 10SM CLR 01/M06 A3011 RMK AO2 PRESFR SLP212 T00111056
Loading
Personal Weather Stations






























Interactive Weather Map New forecast layout! Learn more

10-Day Weather Forecast

Advertisements
Track Severe Weather on mobile